sensor_id;sensor_type;location;lat;lon;timestamp;P1;durP1;ratioP1;P2;durP2;ratioP2
22983;SDS011;11658;48.908;9.140;2023-08-30T04:00:39;5.43;;;4.10;;
22983;SDS011;11658;48.908;9.140;2023-08-30T04:03:07;3.30;;;2.93;;
22983;SDS011;11658;48.908;9.140;2023-08-30T04:05:37;4.70;;;3.40;;
22983;SDS011;11658;48.908;9.140;2023-08-30T04:08:02;4.13;;;3.03;;
22983;SDS011;11658;48.908;9.140;2023-08-30T04:10:34;3.57;;;3.27;;
22983;SDS011;11658;48.908;9.140;2023-08-30T04:13:01;3.87;;;2.80;;
22983;SDS011;11658;48.908;9.140;2023-08-30T04:15:27;3.87;;;3.03;;
22983;SDS011;11658;48.908;9.140;2023-08-30T04:17:52;3.10;;;2.67;;
22983;SDS011;11658;48.908;9.140;2023-08-30T04:20:18;3.00;;;2.50;;
22983;SDS011;11658;48.908;9.140;2023-08-30T04:22:44;3.63;;;3.00;;
22983;SDS011;11658;48.908;9.140;2023-08-30T04:25:09;2.80;;;2.50;;
22983;SDS011;11658;48.908;9.140;2023-08-30T04:27:35;4.20;;;3.53;;
22983;SDS011;11658;48.908;9.140;2023-08-30T04:30:01;3.67;;;3.20;;
22983;SDS011;11658;48.908;9.140;2023-08-30T04:32:27;3.80;;;2.90;;
22983;SDS011;11658;48.908;9.140;2023-08-30T04:34:52;4.60;;;3.57;;
22983;SDS011;11658;48.908;9.140;2023-08-30T04:37:18;5.13;;;3.50;;
22983;SDS011;11658;48.908;9.140;2023-08-30T04:39:47;5.20;;;3.33;;
22983;SDS011;11658;48.908;9.140;2023-08-30T04:42:13;4.50;;;4.10;;
22983;SDS011;11658;48.908;9.140;2023-08-30T04:44:39;4.40;;;3.60;;
22983;SDS011;11658;48.908;9.140;2023-08-30T04:47:05;6.67;;;3.70;;
22983;SDS011;11658;48.908;9.140;2023-08-30T04:49:30;5.00;;;3.90;;
22983;SDS011;11658;48.908;9.140;2023-08-30T04:51:56;4.60;;;3.53;;
22983;SDS011;11658;48.908;9.140;2023-08-30T04:54:21;4.60;;;3.70;;
22983;SDS011;11658;48.908;9.140;2023-08-30T04:56:47;5.37;;;3.33;;
22983;SDS011;11658;48.908;9.140;2023-08-30T04:59:12;5.23;;;3.50;;
22983;SDS011;11658;48.908;9.140;2023-08-30T05:01:38;3.70;;;3.20;;
22983;SDS011;11658;48.908;9.140;2023-08-30T05:04:07;5.17;;;3.60;;
22983;SDS011;11658;48.908;9.140;2023-08-30T05:06:32;4.20;;;3.40;;
22983;SDS011;11658;48.908;9.140;2023-08-30T05:08:58;4.73;;;3.20;;
22983;SDS011;11658;48.908;9.140;2023-08-30T05:11:24;4.00;;;3.47;;
22983;SDS011;11658;48.908;9.140;2023-08-30T05:13:49;5.87;;;3.20;;
22983;SDS011;11658;48.908;9.140;2023-08-30T05:16:15;3.90;;;3.50;;
22983;SDS011;11658;48.908;9.140;2023-08-30T05:18:40;5.03;;;3.43;;
22983;SDS011;11658;48.908;9.140;2023-08-30T05:21:06;4.20;;;3.37;;
22983;SDS011;11658;48.908;9.140;2023-08-30T05:23:31;4.50;;;3.70;;
22983;SDS011;11658;48.908;9.140;2023-08-30T05:25:57;4.47;;;3.00;;
22983;SDS011;11658;48.908;9.140;2023-08-30T05:28:23;4.57;;;3.37;;
22983;SDS011;11658;48.908;9.140;2023-08-30T05:30:48;3.87;;;3.37;;
22983;SDS011;11658;48.908;9.140;2023-08-30T05:33:14;3.60;;;3.30;;
22983;SDS011;11658;48.908;9.140;2023-08-30T05:35:39;4.13;;;3.53;;
22983;SDS011;11658;48.908;9.140;2023-08-30T05:38:06;7.07;;;3.80;;
22983;SDS011;11658;48.908;9.140;2023-08-30T05:40:31;4.73;;;3.23;;
22983;SDS011;11658;48.908;9.140;2023-08-30T05:42:57;3.57;;;2.97;;
22983;SDS011;11658;48.908;9.140;2023-08-30T05:45:22;6.30;;;3.50;;
22983;SDS011;11658;48.908;9.140;2023-08-30T05:47:50;13.77;;;3.70;;
22983;SDS011;11658;48.908;9.140;2023-08-30T05:50:16;4.27;;;3.87;;
22983;SDS011;11658;48.908;9.140;2023-08-30T05:52:42;4.40;;;3.40;;
22983;SDS011;11658;48.908;9.140;2023-08-30T05:55:09;3.40;;;3.10;;
22983;SDS011;11658;48.908;9.140;2023-08-30T05:57:35;3.73;;;2.83;;
22983;SDS011;11658;48.908;9.140;2023-08-30T06:00:01;3.57;;;3.27;;
22983;SDS011;11658;48.908;9.140;2023-08-30T06:02:26;3.17;;;2.57;;
22983;SDS011;11658;48.908;9.140;2023-08-30T06:04:52;3.50;;;3.20;;
22983;SDS011;11658;48.908;9.140;2023-08-30T06:07:18;5.40;;;3.10;;
22983;SDS011;11658;48.908;9.140;2023-08-30T06:09:43;4.23;;;3.07;;
22983;SDS011;11658;48.908;9.140;2023-08-30T06:12:09;3.40;;;2.90;;
22983;SDS011;11658;48.908;9.140;2023-08-30T06:14:35;3.30;;;2.80;;
22983;SDS011;11658;48.908;9.140;2023-08-30T06:17:01;2.83;;;2.60;;
22983;SDS011;11658;48.908;9.140;2023-08-30T06:19:27;3.97;;;3.10;;
22983;SDS011;11658;48.908;9.140;2023-08-30T06:21:53;2.90;;;2.57;;
22983;SDS011;11658;48.908;9.140;2023-08-30T06:24:18;3.00;;;2.70;;
22983;SDS011;11658;48.908;9.140;2023-08-30T06:26:44;3.03;;;2.60;;
22983;SDS011;11658;48.908;9.140;2023-08-30T06:29:09;2.63;;;2.43;;
22983;SDS011;11658;48.908;9.140;2023-08-30T06:31:35;3.03;;;2.40;;
22983;SDS011;11658;48.908;9.140;2023-08-30T06:34:00;4.33;;;2.17;;
22983;SDS011;11658;48.908;9.140;2023-08-30T06:36:26;2.67;;;2.47;;
22983;SDS011;11658;48.908;9.140;2023-08-30T06:38:52;2.60;;;2.40;;
22983;SDS011;11658;48.908;9.140;2023-08-30T06:41:17;2.57;;;1.90;;
22983;SDS011;11658;48.908;9.140;2023-08-30T06:43:43;4.13;;;2.43;;
22983;SDS011;11658;48.908;9.140;2023-08-30T06:46:08;3.77;;;2.40;;
22983;SDS011;11658;48.908;9.140;2023-08-30T06:48:34;3.03;;;1.77;;
22983;SDS011;11658;48.908;9.140;2023-08-30T06:50:59;2.57;;;2.37;;
22983;SDS011;11658;48.908;9.140;2023-08-30T06:53:28;1.83;;;1.70;;
22983;SDS011;11658;48.908;9.140;2023-08-30T06:56:00;2.17;;;1.80;;
22983;SDS011;11658;48.908;9.140;2023-08-30T06:58:26;2.33;;;2.10;;
22983;SDS011;11658;48.908;9.140;2023-08-30T07:00:52;2.43;;;2.20;;
22983;SDS011;11658;48.908;9.140;2023-08-30T07:03:18;1.87;;;1.77;;
22983;SDS011;11658;48.908;9.140;2023-08-30T07:05:44;2.37;;;1.90;;
22983;SDS011;11658;48.908;9.140;2023-08-30T07:08:12;3.60;;;1.90;;
22983;SDS011;11658;48.908;9.140;2023-08-30T07:10:40;2.10;;;1.80;;
22983;SDS011;11658;48.908;9.140;2023-08-30T07:13:06;2.67;;;2.10;;
22983;SDS011;11658;48.908;9.140;2023-08-30T07:15:35;3.20;;;2.00;;
22983;SDS011;11658;48.908;9.140;2023-08-30T07:18:01;1.93;;;1.80;;
22983;SDS011;11658;48.908;9.140;2023-08-30T07:20:28;1.97;;;1.77;;
22983;SDS011;11658;48.908;9.140;2023-08-30T07:22:54;1.60;;;1.50;;
22983;SDS011;11658;48.908;9.140;2023-08-30T07:25:19;2.50;;;2.30;;
22983;SDS011;11658;48.908;9.140;2023-08-30T07:27:45;2.20;;;2.00;;
22983;SDS011;11658;48.908;9.140;2023-08-30T07:30:11;2.10;;;1.90;;
22983;SDS011;11658;48.908;9.140;2023-08-30T07:32:37;2.37;;;2.17;;
22983;SDS011;11658;48.908;9.140;2023-08-30T07:35:03;2.20;;;1.97;;
22983;SDS011;11658;48.908;9.140;2023-08-30T07:37:29;2.30;;;1.93;;
22983;SDS011;11658;48.908;9.140;2023-08-30T07:39:55;6.43;;;2.50;;
22983;SDS011;11658;48.908;9.140;2023-08-30T07:42:20;2.57;;;2.37;;
22983;SDS011;11658;48.908;9.140;2023-08-30T07:44:46;3.73;;;2.10;;
22983;SDS011;11658;48.908;9.140;2023-08-30T07:47:11;2.37;;;1.70;;
22983;SDS011;11658;48.908;9.140;2023-08-30T07:49:37;3.20;;;2.63;;
22983;SDS011;11658;48.908;9.140;2023-08-30T07:52:02;2.70;;;1.80;;
22983;SDS011;11658;48.908;9.140;2023-08-30T07:54:29;2.60;;;2.07;;
22983;SDS011;11658;48.908;9.140;2023-08-30T07:56:55;2.60;;;1.67;;
22983;SDS011;11658;48.908;9.140;2023-08-30T07:59:21;2.13;;;1.80;;
22983;SDS011;11658;48.908;9.140;2023-08-30T08:01:47;3.83;;;2.80;;
22983;SDS011;11658;48.908;9.140;2023-08-30T08:04:12;4.33;;;2.03;;
22983;SDS011;11658;48.908;9.140;2023-08-30T08:06:38;3.03;;;2.17;;
22983;SDS011;11658;48.908;9.140;2023-08-30T08:09:04;1.80;;;1.60;;
22983;SDS011;11658;48.908;9.140;2023-08-30T08:11:30;2.13;;;2.00;;
22983;SDS011;11658;48.908;9.140;2023-08-30T08:13:56;8.87;;;3.50;;
22983;SDS011;11658;48.908;9.140;2023-08-30T08:16:22;2.30;;;2.10;;
22983;SDS011;11658;48.908;9.140;2023-08-30T08:18:47;2.23;;;2.03;;
22983;SDS011;11658;48.908;9.140;2023-08-30T08:21:14;3.50;;;2.70;;
22983;SDS011;11658;48.908;9.140;2023-08-30T08:23:39;2.37;;;2.17;;
22983;SDS011;11658;48.908;9.140;2023-08-30T08:26:05;2.40;;;2.20;;
22983;SDS011;11658;48.908;9.140;2023-08-30T08:28:32;2.13;;;1.90;;
22983;SDS011;11658;48.908;9.140;2023-08-30T08:30:58;2.07;;;1.70;;
22983;SDS011;11658;48.908;9.140;2023-08-30T08:33:24;2.10;;;1.90;;
22983;SDS011;11658;48.908;9.140;2023-08-30T08:35:49;2.00;;;1.80;;
22983;SDS011;11658;48.908;9.140;2023-08-30T08:38:15;2.37;;;2.00;;
22983;SDS011;11658;48.908;9.140;2023-08-30T08:40:41;2.73;;;2.23;;
22983;SDS011;11658;48.908;9.140;2023-08-30T08:43:06;2.30;;;2.10;;
22983;SDS011;11658;48.908;9.140;2023-08-30T08:45:35;2.40;;;1.97;;
22983;SDS011;11658;48.908;9.140;2023-08-30T08:48:04;3.30;;;1.80;;
22983;SDS011;11658;48.908;9.140;2023-08-30T08:50:31;2.57;;;2.37;;
22983;SDS011;11658;48.908;9.140;2023-08-30T08:52:57;3.67;;;2.17;;
22983;SDS011;11658;48.908;9.140;2023-08-30T08:55:24;3.27;;;1.90;;
22983;SDS011;11658;48.908;9.140;2023-08-30T08:57:52;2.07;;;1.80;;
22983;SDS011;11658;48.908;9.140;2023-08-30T09:00:19;2.07;;;1.70;;
22983;SDS011;11658;48.908;9.140;2023-08-30T09:02:44;2.83;;;2.10;;
22983;SDS011;11658;48.908;9.140;2023-08-30T09:05:11;3.70;;;3.07;;
22983;SDS011;11658;48.908;9.140;2023-08-30T09:07:37;1.93;;;1.40;;
22983;SDS011;11658;48.908;9.140;2023-08-30T09:10:03;2.07;;;1.67;;
22983;SDS011;11658;48.908;9.140;2023-08-30T09:12:32;1.70;;;1.27;;
22983;SDS011;11658;48.908;9.140;2023-08-30T09:14:58;1.30;;;1.20;;
22983;SDS011;11658;48.908;9.140;2023-08-30T09:17:23;1.37;;;1.17;;
22983;SDS011;11658;48.908;9.140;2023-08-30T09:20:05;1.33;;;1.23;;
22983;SDS011;11658;48.908;9.140;2023-08-30T09:22:36;1.30;;;1.20;;
22983;SDS011;11658;48.908;9.140;2023-08-30T09:25:06;2.53;;;1.60;;
22983;SDS011;11658;48.908;9.140;2023-08-30T09:27:34;1.23;;;1.13;;
22983;SDS011;11658;48.908;9.140;2023-08-30T09:29:59;2.57;;;1.57;;
22983;SDS011;11658;48.908;9.140;2023-08-30T09:32:25;1.60;;;1.30;;
22983;SDS011;11658;48.908;9.140;2023-08-30T09:34:51;1.30;;;1.20;;
22983;SDS011;11658;48.908;9.140;2023-08-30T09:37:20;1.57;;;1.30;;
22983;SDS011;11658;48.908;9.140;2023-08-30T09:39:50;2.53;;;1.10;;
22983;SDS011;11658;48.908;9.140;2023-08-30T09:42:19;1.70;;;1.33;;
22983;SDS011;11658;48.908;9.140;2023-08-30T09:44:44;1.17;;;1.07;;
22983;SDS011;11658;48.908;9.140;2023-08-30T09:47:12;1.10;;;1.00;;
22983;SDS011;11658;48.908;9.140;2023-08-30T09:49:45;1.27;;;1.17;;
22983;SDS011;11658;48.908;9.140;2023-08-30T09:52:14;1.10;;;1.00;;
22983;SDS011;11658;48.908;9.140;2023-08-30T09:54:41;0.90;;;0.90;;
22983;SDS011;11658;48.908;9.140;2023-08-30T09:57:09;1.17;;;1.07;;
22983;SDS011;11658;48.908;9.140;2023-08-30T09:59:35;1.00;;;0.90;;
22983;SDS011;11658;48.908;9.140;2023-08-30T10:02:03;1.03;;;0.83;;
22983;SDS011;11658;48.908;9.140;2023-08-30T10:04:30;1.33;;;1.10;;
22983;SDS011;11658;48.908;9.140;2023-08-30T10:06:57;0.83;;;0.80;;
22983;SDS011;11658;48.908;9.140;2023-08-30T10:09:23;0.77;;;0.73;;
22983;SDS011;11658;48.908;9.140;2023-08-30T10:11:49;2.20;;;1.10;;
22983;SDS011;11658;48.908;9.140;2023-08-30T10:14:16;2.30;;;1.73;;
22983;SDS011;11658;48.908;9.140;2023-08-30T10:16:42;0.63;;;0.63;;
22983;SDS011;11658;48.908;9.140;2023-08-30T10:19:11;1.23;;;1.03;;
22983;SDS011;11658;48.908;9.140;2023-08-30T10:21:56;1.53;;;1.00;;
22983;SDS011;11658;48.908;9.140;2023-08-30T10:24:38;1.13;;;0.75;;
22983;SDS011;11658;48.908;9.140;2023-08-30T10:27:07;0.75;;;0.73;;
22983;SDS011;11658;48.908;9.140;2023-08-30T10:29:34;0.93;;;0.70;;
22983;SDS011;11658;48.908;9.140;2023-08-30T10:32:05;0.87;;;0.70;;
22983;SDS011;11658;48.908;9.140;2023-08-30T10:34:31;0.50;;;0.50;;
22983;SDS011;11658;48.908;9.140;2023-08-30T10:37:01;0.90;;;0.90;;
22983;SDS011;11658;48.908;9.140;2023-08-30T10:39:38;0.70;;;0.70;;
22983;SDS011;11658;48.908;9.140;2023-08-30T10:42:11;1.00;;;0.80;;
22983;SDS011;11658;48.908;9.140;2023-08-30T10:47:20;0.87;;;0.87;;
22983;SDS011;11658;48.908;9.140;2023-08-30T10:49:48;1.60;;;0.80;;
22983;SDS011;11658;48.908;9.140;2023-08-30T10:52:14;1.37;;;1.10;;
22983;SDS011;11658;48.908;9.140;2023-08-30T10:54:40;1.43;;;1.17;;
22983;SDS011;11658;48.908;9.140;2023-08-30T10:57:12;0.80;;;0.80;;
22983;SDS011;11658;48.908;9.140;2023-08-30T10:59:38;1.07;;;0.90;;
22983;SDS011;11658;48.908;9.140;2023-08-30T11:02:05;0.77;;;0.77;;
22983;SDS011;11658;48.908;9.140;2023-08-30T11:04:31;0.90;;;0.80;;
22983;SDS011;11658;48.908;9.140;2023-08-30T11:06:57;1.20;;;1.10;;
22983;SDS011;11658;48.908;9.140;2023-08-30T11:09:24;1.75;;;1.20;;
22983;SDS011;11658;48.908;9.140;2023-08-30T11:11:50;2.63;;;1.30;;
22983;SDS011;11658;48.908;9.140;2023-08-30T11:14:16;1.30;;;1.17;;
22983;SDS011;11658;48.908;9.140;2023-08-30T11:16:43;1.07;;;0.83;;
22983;SDS011;11658;48.908;9.140;2023-08-30T11:19:09;0.97;;;0.90;;
22983;SDS011;11658;48.908;9.140;2023-08-30T11:21:37;1.37;;;1.27;;
22983;SDS011;11658;48.908;9.140;2023-08-30T11:24:05;1.20;;;1.10;;
22983;SDS011;11658;48.908;9.140;2023-08-30T11:26:31;1.37;;;1.13;;
22983;SDS011;11658;48.908;9.140;2023-08-30T11:28:57;1.80;;;1.40;;
22983;SDS011;11658;48.908;9.140;2023-08-30T11:31:28;0.90;;;0.90;;
22983;SDS011;11658;48.908;9.140;2023-08-30T11:33:55;1.67;;;1.23;;
22983;SDS011;11658;48.908;9.140;2023-08-30T11:36:22;1.13;;;1.03;;
22983;SDS011;11658;48.908;9.140;2023-08-30T11:38:50;1.70;;;1.23;;
22983;SDS011;11658;48.908;9.140;2023-08-30T11:41:17;1.00;;;1.00;;
22983;SDS011;11658;48.908;9.140;2023-08-30T11:43:44;1.03;;;0.93;;
22983;SDS011;11658;48.908;9.140;2023-08-30T11:46:10;1.13;;;1.03;;
22983;SDS011;11658;48.908;9.140;2023-08-30T11:48:37;1.37;;;1.20;;
22983;SDS011;11658;48.908;9.140;2023-08-30T11:51:04;1.20;;;1.10;;
22983;SDS011;11658;48.908;9.140;2023-08-30T11:53:30;1.63;;;1.20;;
22983;SDS011;11658;48.908;9.140;2023-08-30T11:55:57;1.47;;;1.37;;
22983;SDS011;11658;48.908;9.140;2023-08-30T11:58:22;1.33;;;1.13;;
22983;SDS011;11658;48.908;9.140;2023-08-30T12:00:51;1.23;;;1.13;;
22983;SDS011;11658;48.908;9.140;2023-08-30T12:03:18;1.03;;;0.97;;
22983;SDS011;11658;48.908;9.140;2023-08-30T12:05:47;1.40;;;1.00;;
22983;SDS011;11658;48.908;9.140;2023-08-30T12:08:23;1.17;;;1.03;;
22983;SDS011;11658;48.908;9.140;2023-08-30T12:10:50;1.90;;;1.37;;
22983;SDS011;11658;48.908;9.140;2023-08-30T12:13:23;2.10;;;1.10;;
22983;SDS011;11658;48.908;9.140;2023-08-30T12:15:49;1.53;;;1.20;;
22983;SDS011;11658;48.908;9.140;2023-08-30T12:18:15;1.60;;;1.50;;
22983;SDS011;11658;48.908;9.140;2023-08-30T12:20:51;2.13;;;1.53;;
22983;SDS011;11658;48.908;9.140;2023-08-30T12:23:20;1.10;;;0.90;;
22983;SDS011;11658;48.908;9.140;2023-08-30T12:25:56;2.03;;;1.40;;
22983;SDS011;11658;48.908;9.140;2023-08-30T12:28:26;1.70;;;1.20;;
22983;SDS011;11658;48.908;9.140;2023-08-30T12:30:53;1.70;;;1.60;;
22983;SDS011;11658;48.908;9.140;2023-08-30T12:33:19;1.43;;;1.10;;
22983;SDS011;11658;48.908;9.140;2023-08-30T12:35:45;1.83;;;1.37;;
22983;SDS011;11658;48.908;9.140;2023-08-30T12:38:10;1.80;;;1.50;;
22983;SDS011;11658;48.908;9.140;2023-08-30T12:40:43;3.27;;;1.50;;
22983;SDS011;11658;48.908;9.140;2023-08-30T12:43:14;2.00;;;1.80;;
22983;SDS011;11658;48.908;9.140;2023-08-30T12:45:40;1.30;;;1.10;;
22983;SDS011;11658;48.908;9.140;2023-08-30T12:48:07;1.98;;;1.30;;
22983;SDS011;11658;48.908;9.140;2023-08-30T12:50:33;1.20;;;1.10;;
22983;SDS011;11658;48.908;9.140;2023-08-30T12:53:00;1.52;;;1.42;;
22983;SDS011;11658;48.908;9.140;2023-08-30T12:55:26;1.80;;;1.70;;
22983;SDS011;11658;48.908;9.140;2023-08-30T12:57:52;1.08;;;0.90;;
22983;SDS011;11658;48.908;9.140;2023-08-30T13:00:18;1.10;;;1.00;;
22983;SDS011;11658;48.908;9.140;2023-08-30T13:02:44;1.52;;;1.13;;
22983;SDS011;11658;48.908;9.140;2023-08-30T13:05:10;2.10;;;1.10;;
22983;SDS011;11658;48.908;9.140;2023-08-30T13:07:36;1.10;;;0.90;;
22983;SDS011;11658;48.908;9.140;2023-08-30T13:10:02;1.33;;;1.20;;
22983;SDS011;11658;48.908;9.140;2023-08-30T13:12:27;1.10;;;1.00;;
22983;SDS011;11658;48.908;9.140;2023-08-30T13:14:53;1.15;;;1.00;;
22983;SDS011;11658;48.908;9.140;2023-08-30T13:17:20;1.25;;;1.02;;
22983;SDS011;11658;48.908;9.140;2023-08-30T13:19:45;1.92;;;1.30;;
22983;SDS011;11658;48.908;9.140;2023-08-30T13:22:11;1.65;;;1.10;;
22983;SDS011;11658;48.908;9.140;2023-08-30T13:24:36;1.30;;;1.20;;
22983;SDS011;11658;48.908;9.140;2023-08-30T13:27:02;1.23;;;1.10;;
22983;SDS011;11658;48.908;9.140;2023-08-30T13:29:28;1.15;;;0.90;;
22983;SDS011;11658;48.908;9.140;2023-08-30T13:31:54;1.23;;;1.13;;
22983;SDS011;11658;48.908;9.140;2023-08-30T13:34:20;1.33;;;1.23;;
22983;SDS011;11658;48.908;9.140;2023-08-30T13:36:46;1.35;;;1.10;;
22983;SDS011;11658;48.908;9.140;2023-08-30T13:39:11;3.00;;;1.25;;
22983;SDS011;11658;48.908;9.140;2023-08-30T13:41:37;0.90;;;0.90;;
22983;SDS011;11658;48.908;9.140;2023-08-30T13:44:02;0.90;;;0.90;;
22983;SDS011;11658;48.908;9.140;2023-08-30T13:46:29;1.35;;;1.25;;
22983;SDS011;11658;48.908;9.140;2023-08-30T13:48:55;1.20;;;0.90;;
22983;SDS011;11658;48.908;9.140;2023-08-30T13:51:24;2.30;;;1.38;;
22983;SDS011;11658;48.908;9.140;2023-08-30T13:53:51;2.15;;;1.17;;
22983;SDS011;11658;48.908;9.140;2023-08-30T13:56:18;1.10;;;1.00;;
22983;SDS011;11658;48.908;9.140;2023-08-30T13:58:43;1.10;;;1.00;;
22983;SDS011;11658;48.908;9.140;2023-08-30T14:01:09;1.08;;;0.95;;
22983;SDS011;11658;48.908;9.140;2023-08-30T14:03:35;2.55;;;1.00;;
22983;SDS011;11658;48.908;9.140;2023-08-30T14:06:01;1.67;;;1.00;;
22983;SDS011;11658;48.908;9.140;2023-08-30T14:08:26;1.42;;;1.10;;
22983;SDS011;11658;48.908;9.140;2023-08-30T14:10:52;1.00;;;0.90;;
22983;SDS011;11658;48.908;9.140;2023-08-30T14:13:19;1.70;;;1.50;;
22983;SDS011;11658;48.908;9.140;2023-08-30T14:15:44;0.70;;;0.70;;
22983;SDS011;11658;48.908;9.140;2023-08-30T14:18:10;0.90;;;0.90;;
22983;SDS011;11658;48.908;9.140;2023-08-30T14:20:36;1.38;;;1.27;;
22983;SDS011;11658;48.908;9.140;2023-08-30T14:23:02;1.20;;;1.10;;
22983;SDS011;11658;48.908;9.140;2023-08-30T14:25:28;1.42;;;1.10;;
22983;SDS011;11658;48.908;9.140;2023-08-30T14:27:54;1.20;;;1.10;;
22983;SDS011;11658;48.908;9.140;2023-08-30T14:30:20;0.85;;;0.85;;
22983;SDS011;11658;48.908;9.140;2023-08-30T14:32:45;0.95;;;0.82;;
22983;SDS011;11658;48.908;9.140;2023-08-30T14:35:11;2.40;;;0.88;;
22983;SDS011;11658;48.908;9.140;2023-08-30T14:37:37;1.10;;;1.00;;
22983;SDS011;11658;48.908;9.140;2023-08-30T14:40:04;1.20;;;1.10;;
22983;SDS011;11658;48.908;9.140;2023-08-30T14:42:30;1.60;;;1.40;;
22983;SDS011;11658;48.908;9.140;2023-08-30T14:44:57;1.35;;;1.10;;
22983;SDS011;11658;48.908;9.140;2023-08-30T14:47:22;1.23;;;1.10;;
22983;SDS011;11658;48.908;9.140;2023-08-30T14:49:48;1.00;;;0.88;;
22983;SDS011;11658;48.908;9.140;2023-08-30T14:52:14;1.27;;;1.02;;
22983;SDS011;11658;48.908;9.140;2023-08-30T14:54:40;1.45;;;1.35;;
22983;SDS011;11658;48.908;9.140;2023-08-30T14:57:06;1.60;;;1.10;;
22983;SDS011;11658;48.908;9.140;2023-08-30T14:59:32;0.98;;;0.90;;
22983;SDS011;11658;48.908;9.140;2023-08-30T15:01:57;1.23;;;0.80;;
22983;SDS011;11658;48.908;9.140;2023-08-30T15:04:23;0.95;;;0.82;;
22983;SDS011;11658;48.908;9.140;2023-08-30T15:06:48;1.52;;;1.20;;
22983;SDS011;11658;48.908;9.140;2023-08-30T15:09:14;0.95;;;0.90;;
22983;SDS011;11658;48.908;9.140;2023-08-30T15:11:42;1.20;;;1.10;;
22983;SDS011;11658;48.908;9.140;2023-08-30T15:14:08;1.17;;;1.08;;
22983;SDS011;11658;48.908;9.140;2023-08-30T15:16:34;1.02;;;0.85;;
22983;SDS011;11658;48.908;9.140;2023-08-30T15:18:59;1.05;;;0.90;;
22983;SDS011;11658;48.908;9.140;2023-08-30T15:21:25;1.20;;;1.10;;
22983;SDS011;11658;48.908;9.140;2023-08-30T15:23:51;1.02;;;0.90;;
22983;SDS011;11658;48.908;9.140;2023-08-30T15:26:17;1.05;;;0.80;;
22983;SDS011;11658;48.908;9.140;2023-08-30T15:28:45;1.02;;;0.93;;
22983;SDS011;11658;48.908;9.140;2023-08-30T15:31:17;1.30;;;1.20;;
22983;SDS011;11658;48.908;9.140;2023-08-30T15:33:46;0.90;;;0.90;;
22983;SDS011;11658;48.908;9.140;2023-08-30T15:36:12;1.00;;;0.90;;
22983;SDS011;11658;48.908;9.140;2023-08-30T15:38:38;0.70;;;0.70;;
22983;SDS011;11658;48.908;9.140;2023-08-30T15:41:08;1.55;;;1.40;;
22983;SDS011;11658;48.908;9.140;2023-08-30T15:43:34;1.60;;;1.00;;
22983;SDS011;11658;48.908;9.140;2023-08-30T15:46:13;3.13;;;1.27;;
22983;SDS011;11658;48.908;9.140;2023-08-30T15:48:39;1.20;;;1.10;;
22983;SDS011;11658;48.908;9.140;2023-08-30T15:51:05;1.13;;;1.03;;
22983;SDS011;11658;48.908;9.140;2023-08-30T15:53:31;0.77;;;0.77;;
22983;SDS011;11658;48.908;9.140;2023-08-30T15:55:57;0.80;;;0.80;;
22983;SDS011;11658;48.908;9.140;2023-08-30T15:58:23;1.30;;;1.20;;
22983;SDS011;11658;48.908;9.140;2023-08-30T16:00:49;0.80;;;0.77;;
22983;SDS011;11658;48.908;9.140;2023-08-30T16:03:14;1.20;;;1.10;;
22983;SDS011;11658;48.908;9.140;2023-08-30T16:05:41;1.30;;;1.20;;
22983;SDS011;11658;48.908;9.140;2023-08-30T16:08:10;1.30;;;0.93;;
22983;SDS011;11658;48.908;9.140;2023-08-30T16:10:37;0.73;;;0.73;;
22983;SDS011;11658;48.908;9.140;2023-08-30T16:13:02;0.97;;;0.97;;
22983;SDS011;11658;48.908;9.140;2023-08-30T16:15:28;0.80;;;0.80;;
22983;SDS011;11658;48.908;9.140;2023-08-30T16:17:55;1.50;;;1.40;;
22983;SDS011;11658;48.908;9.140;2023-08-30T16:20:21;1.30;;;1.20;;
22983;SDS011;11658;48.908;9.140;2023-08-30T16:22:52;1.00;;;0.90;;
22983;SDS011;11658;48.908;9.140;2023-08-30T16:25:18;0.90;;;0.90;;
22983;SDS011;11658;48.908;9.140;2023-08-30T16:27:43;1.23;;;1.10;;
22983;SDS011;11658;48.908;9.140;2023-08-30T16:30:09;0.67;;;0.67;;
22983;SDS011;11658;48.908;9.140;2023-08-30T16:32:35;0.70;;;0.70;;
22983;SDS011;11658;48.908;9.140;2023-08-30T16:35:01;0.93;;;0.80;;
22983;SDS011;11658;48.908;9.140;2023-08-30T16:37:26;0.95;;;0.80;;
22983;SDS011;11658;48.908;9.140;2023-08-30T16:39:53;1.70;;;1.60;;
22983;SDS011;11658;48.908;9.140;2023-08-30T16:42:19;0.73;;;0.73;;
22983;SDS011;11658;48.908;9.140;2023-08-30T16:44:45;0.90;;;0.73;;
22983;SDS011;11658;48.908;9.140;2023-08-30T16:47:11;0.82;;;0.82;;
22983;SDS011;11658;48.908;9.140;2023-08-30T16:49:37;0.93;;;0.93;;
22983;SDS011;11658;48.908;9.140;2023-08-30T16:52:02;1.58;;;1.20;;
22983;SDS011;11658;48.908;9.140;2023-08-30T16:54:28;1.02;;;0.95;;
22983;SDS011;11658;48.908;9.140;2023-08-30T16:56:53;1.55;;;0.85;;
22983;SDS011;11658;48.908;9.140;2023-08-30T16:59:19;2.78;;;1.17;;
22983;SDS011;11658;48.908;9.140;2023-08-30T17:01:45;0.75;;;0.70;;
22983;SDS011;11658;48.908;9.140;2023-08-30T17:04:10;0.90;;;0.90;;
22983;SDS011;11658;48.908;9.140;2023-08-30T17:06:38;1.13;;;0.90;;
22983;SDS011;11658;48.908;9.140;2023-08-30T17:09:04;0.77;;;0.70;;
22983;SDS011;11658;48.908;9.140;2023-08-30T17:11:31;0.70;;;0.57;;
22983;SDS011;11658;48.908;9.140;2023-08-30T17:14:10;1.20;;;1.02;;
22983;SDS011;11658;48.908;9.140;2023-08-30T17:16:37;0.93;;;0.93;;
22983;SDS011;11658;48.908;9.140;2023-08-30T17:19:03;1.27;;;1.00;;
22983;SDS011;11658;48.908;9.140;2023-08-30T17:21:29;0.77;;;0.77;;
22983;SDS011;11658;48.908;9.140;2023-08-30T17:23:55;3.57;;;0.97;;
22983;SDS011;11658;48.908;9.140;2023-08-30T17:26:20;1.57;;;0.93;;
22983;SDS011;11658;48.908;9.140;2023-08-30T17:28:46;3.10;;;1.40;;
22983;SDS011;11658;48.908;9.140;2023-08-30T17:31:12;1.57;;;1.10;;
22983;SDS011;11658;48.908;9.140;2023-08-30T17:33:39;0.83;;;0.83;;
22983;SDS011;11658;48.908;9.140;2023-08-30T17:36:05;1.30;;;1.10;;
22983;SDS011;11658;48.908;9.140;2023-08-30T17:38:31;0.80;;;0.80;;
22983;SDS011;11658;48.908;9.140;2023-08-30T17:40:57;2.00;;;1.30;;
22983;SDS011;11658;48.908;9.140;2023-08-30T17:43:22;1.17;;;0.90;;
22983;SDS011;11658;48.908;9.140;2023-08-30T17:45:48;1.20;;;1.10;;
22983;SDS011;11658;48.908;9.140;2023-08-30T17:48:14;1.37;;;1.00;;
22983;SDS011;11658;48.908;9.140;2023-08-30T17:50:40;0.97;;;0.93;;
22983;SDS011;11658;48.908;9.140;2023-08-30T17:53:09;1.90;;;1.10;;
22983;SDS011;11658;48.908;9.140;2023-08-30T17:55:38;1.13;;;1.03;;
22983;SDS011;11658;48.908;9.140;2023-08-30T17:58:04;3.60;;;1.00;;
22983;SDS011;11658;48.908;9.140;2023-08-30T18:00:30;1.40;;;1.30;;
22983;SDS011;11658;48.908;9.140;2023-08-30T18:02:56;0.97;;;0.93;;
22983;SDS011;11658;48.908;9.140;2023-08-30T18:05:22;3.67;;;1.30;;
22983;SDS011;11658;48.908;9.140;2023-08-30T18:07:49;1.20;;;1.07;;
22983;SDS011;11658;48.908;9.140;2023-08-30T18:10:19;1.40;;;1.07;;
22983;SDS011;11658;48.908;9.140;2023-08-30T18:12:45;1.30;;;1.13;;
22983;SDS011;11658;48.908;9.140;2023-08-30T18:15:11;1.93;;;1.13;;
22983;SDS011;11658;48.908;9.140;2023-08-30T18:17:36;1.23;;;1.13;;
22983;SDS011;11658;48.908;9.140;2023-08-30T18:20:02;1.40;;;1.30;;
22983;SDS011;11658;48.908;9.140;2023-08-30T18:22:31;2.07;;;1.40;;
22983;SDS011;11658;48.908;9.140;2023-08-30T18:24:57;1.13;;;1.03;;
22983;SDS011;11658;48.908;9.140;2023-08-30T18:27:22;1.97;;;1.47;;
22983;SDS011;11658;48.908;9.140;2023-08-30T18:29:48;1.10;;;1.00;;
22983;SDS011;11658;48.908;9.140;2023-08-30T18:32:14;2.23;;;1.67;;
22983;SDS011;11658;48.908;9.140;2023-08-30T18:34:40;1.53;;;1.40;;
22983;SDS011;11658;48.908;9.140;2023-08-30T18:37:07;1.87;;;1.43;;
22983;SDS011;11658;48.908;9.140;2023-08-30T18:39:33;1.43;;;1.20;;
22983;SDS011;11658;48.908;9.140;2023-08-30T18:41:59;1.13;;;1.03;;
22983;SDS011;11658;48.908;9.140;2023-08-30T18:44:25;1.60;;;1.50;;
22983;SDS011;11658;48.908;9.140;2023-08-30T18:46:51;1.57;;;1.20;;